sensor_id;sensor_type;location;lat;lon;timestamp;temperature;humidity
18882;DHT22;9573;50.948;11.600;2023-11-19T00:00:07;6.30;99.90
18882;DHT22;9573;50.948;11.600;2023-11-19T00:02:37;6.30;99.90
18882;DHT22;9573;50.948;11.600;2023-11-19T00:05:05;6.30;99.90
18882;DHT22;9573;50.948;11.600;2023-11-19T00:07:35;6.40;99.90
18882;DHT22;9573;50.948;11.600;2023-11-19T00:10:03;6.50;99.90
18882;DHT22;9573;50.948;11.600;2023-11-19T00:12:32;6.50;99.90
18882;DHT22;9573;50.948;11.600;2023-11-19T00:15:01;6.50;99.90
18882;DHT22;9573;50.948;11.600;2023-11-19T00:17:28;6.50;99.90
18882;DHT22;9573;50.948;11.600;2023-11-19T00:19:55;6.50;99.90
18882;DHT22;9573;50.948;11.600;2023-11-19T00:22:22;6.50;99.90
18882;DHT22;9573;50.948;11.600;2023-11-19T00:24:49;6.60;99.90
18882;DHT22;9573;50.948;11.600;2023-11-19T00:27:16;6.60;99.90
18882;DHT22;9573;50.948;11.600;2023-11-19T00:29:43;6.70;99.90
18882;DHT22;9573;50.948;11.600;2023-11-19T00:32:13;6.60;99.90
18882;DHT22;9573;50.948;11.600;2023-11-19T00:34:43;6.70;99.90
18882;DHT22;9573;50.948;11.600;2023-11-19T00:37:10;6.70;99.90
18882;DHT22;9573;50.948;11.600;2023-11-19T00:39:37;6.70;99.90
18882;DHT22;9573;50.948;11.600;2023-11-19T00:42:04;6.80;99.90
18882;DHT22;9573;50.948;11.600;2023-11-19T00:44:31;6.80;99.90
18882;DHT22;9573;50.948;11.600;2023-11-19T00:46:59;6.80;99.90
18882;DHT22;9573;50.948;11.600;2023-11-19T00:49:27;6.90;99.90
18882;DHT22;9573;50.948;11.600;2023-11-19T00:51:55;6.90;99.90
18882;DHT22;9573;50.948;11.600;2023-11-19T00:54:22;7.00;99.90
18882;DHT22;9573;50.948;11.600;2023-11-19T00:56:51;7.00;99.90
18882;DHT22;9573;50.948;11.600;2023-11-19T00:59:18;7.00;99.90
18882;DHT22;9573;50.948;11.600;2023-11-19T01:01:45;7.10;99.90
18882;DHT22;9573;50.948;11.600;2023-11-19T01:04:13;7.10;99.90
18882;DHT22;9573;50.948;11.600;2023-11-19T01:06:42;7.10;99.90
18882;DHT22;9573;50.948;11.600;2023-11-19T01:09:09;7.10;99.90
18882;DHT22;9573;50.948;11.600;2023-11-19T01:11:36;7.10;99.90
18882;DHT22;9573;50.948;11.600;2023-11-19T01:14:03;7.00;99.90
18882;DHT22;9573;50.948;11.600;2023-11-19T01:16:30;7.00;99.90
18882;DHT22;9573;50.948;11.600;2023-11-19T01:18:57;7.00;99.90
18882;DHT22;9573;50.948;11.600;2023-11-19T01:21:29;7.00;99.90
18882;DHT22;9573;50.948;11.600;2023-11-19T01:23:58;7.00;99.90
18882;DHT22;9573;50.948;11.600;2023-11-19T01:26:26;7.00;99.90
18882;DHT22;9573;50.948;11.600;2023-11-19T01:28:53;7.00;99.90
18882;DHT22;9573;50.948;11.600;2023-11-19T01:31:20;7.00;99.90
18882;DHT22;9573;50.948;11.600;2023-11-19T01:33:47;7.00;99.90
18882;DHT22;9573;50.948;11.600;2023-11-19T01:36:14;7.00;99.90
18882;DHT22;9573;50.948;11.600;2023-11-19T01:38:41;7.00;99.90
18882;DHT22;9573;50.948;11.600;2023-11-19T01:41:10;8.20;99.90
18882;DHT22;9573;50.948;11.600;2023-11-19T01:43:39;7.00;99.90
18882;DHT22;9573;50.948;11.600;2023-11-19T01:46:08;7.10;99.90
18882;DHT22;9573;50.948;11.600;2023-11-19T01:48:39;7.10;99.90
18882;DHT22;9573;50.948;11.600;2023-11-19T01:51:08;7.00;99.90
18882;DHT22;9573;50.948;11.600;2023-11-19T01:53:36;7.10;99.90
18882;DHT22;9573;50.948;11.600;2023-11-19T01:56:07;7.00;99.90
18882;DHT22;9573;50.948;11.600;2023-11-19T01:58:37;7.00;99.90
18882;DHT22;9573;50.948;11.600;2023-11-19T02:01:05;7.00;99.90
18882;DHT22;9573;50.948;11.600;2023-11-19T02:03:33;7.00;99.90
18882;DHT22;9573;50.948;11.600;2023-11-19T02:06:01;7.00;99.90
18882;DHT22;9573;50.948;11.600;2023-11-19T02:08:29;7.00;99.90
18882;DHT22;9573;50.948;11.600;2023-11-19T02:10:57;7.10;99.90
18882;DHT22;9573;50.948;11.600;2023-11-19T02:13:24;7.00;99.90
18882;DHT22;9573;50.948;11.600;2023-11-19T02:15:53;7.00;99.90
18882;DHT22;9573;50.948;11.600;2023-11-19T02:18:22;7.00;99.90
18882;DHT22;9573;50.948;11.600;2023-11-19T02:20:50;7.00;99.90
18882;DHT22;9573;50.948;11.600;2023-11-19T02:23:18;7.00;99.90
18882;DHT22;9573;50.948;11.600;2023-11-19T02:25:51;7.00;99.90
18882;DHT22;9573;50.948;11.600;2023-11-19T02:28:28;6.90;99.90
18882;DHT22;9573;50.948;11.600;2023-11-19T02:30:55;6.90;99.90
18882;DHT22;9573;50.948;11.600;2023-11-19T02:33:22;6.80;99.90
18882;DHT22;9573;50.948;11.600;2023-11-19T02:35:50;6.80;99.90
18882;DHT22;9573;50.948;11.600;2023-11-19T02:38:17;6.90;99.90
18882;DHT22;9573;50.948;11.600;2023-11-19T02:40:44;6.90;99.90
18882;DHT22;9573;50.948;11.600;2023-11-19T02:43:11;6.90;99.90
18882;DHT22;9573;50.948;11.600;2023-11-19T02:45:40;7.00;99.90
18882;DHT22;9573;50.948;11.600;2023-11-19T02:48:08;7.00;99.90
18882;DHT22;9573;50.948;11.600;2023-11-19T02:50:35;7.10;99.90
18882;DHT22;9573;50.948;11.600;2023-11-19T02:53:03;7.00;99.90
18882;DHT22;9573;50.948;11.600;2023-11-19T02:55:30;7.00;99.90
18882;DHT22;9573;50.948;11.600;2023-11-19T02:58:01;7.00;99.90
18882;DHT22;9573;50.948;11.600;2023-11-19T03:00:33;7.00;99.90
18882;DHT22;9573;50.948;11.600;2023-11-19T03:03:04;7.00;99.90
18882;DHT22;9573;50.948;11.600;2023-11-19T03:05:43;7.00;99.90
18882;DHT22;9573;50.948;11.600;2023-11-19T03:08:12;7.00;99.90
18882;DHT22;9573;50.948;11.600;2023-11-19T03:10:39;7.00;99.90
18882;DHT22;9573;50.948;11.600;2023-11-19T03:13:11;7.10;99.90
18882;DHT22;9573;50.948;11.600;2023-11-19T03:15:40;7.10;99.90
18882;DHT22;9573;50.948;11.600;2023-11-19T03:18:09;7.20;99.90
18882;DHT22;9573;50.948;11.600;2023-11-19T03:20:36;7.20;99.90
18882;DHT22;9573;50.948;11.600;2023-11-19T03:23:03;7.20;99.90
18882;DHT22;9573;50.948;11.600;2023-11-19T03:25:31;7.30;99.90
18882;DHT22;9573;50.948;11.600;2023-11-19T03:28:00;7.20;99.90
18882;DHT22;9573;50.948;11.600;2023-11-19T03:30:27;7.30;99.90
18882;DHT22;9573;50.948;11.600;2023-11-19T03:32:55;7.40;99.90
18882;DHT22;9573;50.948;11.600;2023-11-19T03:35:24;7.40;99.90
18882;DHT22;9573;50.948;11.600;2023-11-19T03:37:51;7.40;99.90
18882;DHT22;9573;50.948;11.600;2023-11-19T03:40:18;7.50;99.90
18882;DHT22;9573;50.948;11.600;2023-11-19T03:42:45;7.40;99.90
18882;DHT22;9573;50.948;11.600;2023-11-19T03:45:13;7.40;99.90
18882;DHT22;9573;50.948;11.600;2023-11-19T03:47:41;7.40;99.90
18882;DHT22;9573;50.948;11.600;2023-11-19T03:50:08;7.50;99.90
18882;DHT22;9573;50.948;11.600;2023-11-19T03:52:37;7.40;99.90
18882;DHT22;9573;50.948;11.600;2023-11-19T03:55:05;7.50;99.90
18882;DHT22;9573;50.948;11.600;2023-11-19T03:57:34;7.50;99.90
18882;DHT22;9573;50.948;11.600;2023-11-19T04:00:01;7.50;99.90
18882;DHT22;9573;50.948;11.600;2023-11-19T04:02:34;7.50;99.90
18882;DHT22;9573;50.948;11.600;2023-11-19T04:05:01;7.50;99.90
18882;DHT22;9573;50.948;11.600;2023-11-19T04:07:28;7.50;99.90
18882;DHT22;9573;50.948;11.600;2023-11-19T04:09:57;7.50;99.90
18882;DHT22;9573;50.948;11.600;2023-11-19T04:12:24;7.50;99.90
18882;DHT22;9573;50.948;11.600;2023-11-19T04:14:51;7.60;99.90
18882;DHT22;9573;50.948;11.600;2023-11-19T04:17:18;7.50;99.90
18882;DHT22;9573;50.948;11.600;2023-11-19T04:19:45;7.50;99.90
18882;DHT22;9573;50.948;11.600;2023-11-19T04:22:12;7.50;99.90
18882;DHT22;9573;50.948;11.600;2023-11-19T04:24:40;7.50;99.90
18882;DHT22;9573;50.948;11.600;2023-11-19T04:27:10;7.50;99.90
18882;DHT22;9573;50.948;11.600;2023-11-19T04:29:37;7.50;99.90
18882;DHT22;9573;50.948;11.600;2023-11-19T04:32:05;7.40;99.90
18882;DHT22;9573;50.948;11.600;2023-11-19T04:34:33;7.50;99.90
18882;DHT22;9573;50.948;11.600;2023-11-19T04:37:01;7.50;99.90
18882;DHT22;9573;50.948;11.600;2023-11-19T04:39:29;7.50;99.90
18882;DHT22;9573;50.948;11.600;2023-11-19T04:41:56;7.50;99.90
18882;DHT22;9573;50.948;11.600;2023-11-19T04:44:24;7.50;99.90
18882;DHT22;9573;50.948;11.600;2023-11-19T04:46:51;7.60;99.90
18882;DHT22;9573;50.948;11.600;2023-11-19T04:49:18;7.70;99.90
18882;DHT22;9573;50.948;11.600;2023-11-19T04:51:46;7.60;99.90
18882;DHT22;9573;50.948;11.600;2023-11-19T04:54:12;7.60;99.90
18882;DHT22;9573;50.948;11.600;2023-11-19T04:56:40;7.60;99.90
18882;DHT22;9573;50.948;11.600;2023-11-19T04:59:07;7.70;99.90
18882;DHT22;9573;50.948;11.600;2023-11-19T05:01:35;7.70;99.90
18882;DHT22;9573;50.948;11.600;2023-11-19T05:04:02;7.70;99.90
18882;DHT22;9573;50.948;11.600;2023-11-19T05:06:30;7.80;99.90
18882;DHT22;9573;50.948;11.600;2023-11-19T05:08:58;7.80;99.90
18882;DHT22;9573;50.948;11.600;2023-11-19T05:11:29;7.80;99.90
18882;DHT22;9573;50.948;11.600;2023-11-19T05:13:57;7.90;99.90
18882;DHT22;9573;50.948;11.600;2023-11-19T05:16:25;7.80;99.90
18882;DHT22;9573;50.948;11.600;2023-11-19T05:18:53;7.90;99.90
18882;DHT22;9573;50.948;11.600;2023-11-19T05:21:20;8.00;99.90
18882;DHT22;9573;50.948;11.600;2023-11-19T05:23:47;7.90;99.90
18882;DHT22;9573;50.948;11.600;2023-11-19T05:26:18;7.90;99.90
18882;DHT22;9573;50.948;11.600;2023-11-19T05:28:46;7.90;99.90
18882;DHT22;9573;50.948;11.600;2023-11-19T05:31:13;7.90;99.90
18882;DHT22;9573;50.948;11.600;2023-11-19T05:33:40;7.90;99.90
18882;DHT22;9573;50.948;11.600;2023-11-19T05:36:11;7.90;99.90
18882;DHT22;9573;50.948;11.600;2023-11-19T05:38:39;8.00;99.90
18882;DHT22;9573;50.948;11.600;2023-11-19T05:41:06;8.00;99.90
18882;DHT22;9573;50.948;11.600;2023-11-19T05:43:33;8.00;99.90
18882;DHT22;9573;50.948;11.600;2023-11-19T05:46:01;8.00;99.90
18882;DHT22;9573;50.948;11.600;2023-11-19T05:48:28;8.10;99.90
18882;DHT22;9573;50.948;11.600;2023-11-19T05:50:55;8.20;99.90
18882;DHT22;9573;50.948;11.600;2023-11-19T05:53:24;8.20;99.90
18882;DHT22;9573;50.948;11.600;2023-11-19T05:55:51;8.20;99.90
18882;DHT22;9573;50.948;11.600;2023-11-19T05:58:23;8.20;99.90
18882;DHT22;9573;50.948;11.600;2023-11-19T06:00:51;8.30;99.90
18882;DHT22;9573;50.948;11.600;2023-11-19T06:03:18;8.40;99.90
18882;DHT22;9573;50.948;11.600;2023-11-19T06:05:47;8.40;99.90
18882;DHT22;9573;50.948;11.600;2023-11-19T06:08:15;8.40;99.90
18882;DHT22;9573;50.948;11.600;2023-11-19T06:10:48;8.40;99.90
18882;DHT22;9573;50.948;11.600;2023-11-19T06:13:16;8.50;99.90
18882;DHT22;9573;50.948;11.600;2023-11-19T06:15:44;8.40;99.90
18882;DHT22;9573;50.948;11.600;2023-11-19T06:18:11;8.50;99.90
18882;DHT22;9573;50.948;11.600;2023-11-19T06:20:43;8.40;99.90
18882;DHT22;9573;50.948;11.600;2023-11-19T06:23:10;8.50;99.90
18882;DHT22;9573;50.948;11.600;2023-11-19T06:25:37;8.50;99.90
18882;DHT22;9573;50.948;11.600;2023-11-19T06:28:05;8.40;99.90
18882;DHT22;9573;50.948;11.600;2023-11-19T06:30:33;8.30;99.90
18882;DHT22;9573;50.948;11.600;2023-11-19T06:33:01;8.20;99.90
18882;DHT22;9573;50.948;11.600;2023-11-19T06:35:30;8.10;99.90
18882;DHT22;9573;50.948;11.600;2023-11-19T06:38:02;8.00;99.90
18882;DHT22;9573;50.948;11.600;2023-11-19T06:40:30;7.90;99.90
18882;DHT22;9573;50.948;11.600;2023-11-19T06:42:57;7.90;99.90
18882;DHT22;9573;50.948;11.600;2023-11-19T06:45:28;7.90;99.90
18882;DHT22;9573;50.948;11.600;2023-11-19T06:48:04;7.90;99.90
18882;DHT22;9573;50.948;11.600;2023-11-19T06:50:33;7.90;99.90
18882;DHT22;9573;50.948;11.600;2023-11-19T06:53:00;7.90;99.90
18882;DHT22;9573;50.948;11.600;2023-11-19T06:55:27;7.90;99.90
18882;DHT22;9573;50.948;11.600;2023-11-19T06:57:54;8.00;99.90
18882;DHT22;9573;50.948;11.600;2023-11-19T07:00:27;8.10;99.90
18882;DHT22;9573;50.948;11.600;2023-11-19T07:02:54;8.20;99.90
18882;DHT22;9573;50.948;11.600;2023-11-19T07:05:22;8.40;99.90
18882;DHT22;9573;50.948;11.600;2023-11-19T07:07:49;8.50;99.90
18882;DHT22;9573;50.948;11.600;2023-11-19T07:10:16;8.50;99.90
18882;DHT22;9573;50.948;11.600;2023-11-19T07:12:45;8.40;99.90
18882;DHT22;9573;50.948;11.600;2023-11-19T07:15:12;8.40;99.90
18882;DHT22;9573;50.948;11.600;2023-11-19T07:17:41;8.30;99.90
18882;DHT22;9573;50.948;11.600;2023-11-19T07:20:10;8.30;99.90
18882;DHT22;9573;50.948;11.600;2023-11-19T07:22:42;8.40;99.90
18882;DHT22;9573;50.948;11.600;2023-11-19T07:25:15;8.40;99.90
18882;DHT22;9573;50.948;11.600;2023-11-19T07:27:43;8.40;99.90
18882;DHT22;9573;50.948;11.600;2023-11-19T07:30:13;8.60;99.90
18882;DHT22;9573;50.948;11.600;2023-11-19T07:32:41;8.70;99.90
18882;DHT22;9573;50.948;11.600;2023-11-19T07:35:08;8.60;99.90
18882;DHT22;9573;50.948;11.600;2023-11-19T07:37:36;8.60;99.90
18882;DHT22;9573;50.948;11.600;2023-11-19T07:40:03;8.70;99.90
18882;DHT22;9573;50.948;11.600;2023-11-19T07:42:31;8.70;99.90
18882;DHT22;9573;50.948;11.600;2023-11-19T07:44:58;8.80;99.90
18882;DHT22;9573;50.948;11.600;2023-11-19T07:47:25;9.00;99.90
18882;DHT22;9573;50.948;11.600;2023-11-19T07:49:56;9.20;99.90
18882;DHT22;9573;50.948;11.600;2023-11-19T07:52:25;9.40;99.90
18882;DHT22;9573;50.948;11.600;2023-11-19T07:54:52;9.60;99.90
18882;DHT22;9573;50.948;11.600;2023-11-19T07:57:19;9.70;99.90
18882;DHT22;9573;50.948;11.600;2023-11-19T07:59:46;9.80;99.90
18882;DHT22;9573;50.948;11.600;2023-11-19T08:02:13;9.80;99.90
18882;DHT22;9573;50.948;11.600;2023-11-19T08:04:41;9.90;99.90
18882;DHT22;9573;50.948;11.600;2023-11-19T08:07:13;10.00;99.90
18882;DHT22;9573;50.948;11.600;2023-11-19T08:09:43;10.10;99.90
18882;DHT22;9573;50.948;11.600;2023-11-19T08:12:10;10.20;99.90
18882;DHT22;9573;50.948;11.600;2023-11-19T08:14:39;10.40;99.90
18882;DHT22;9573;50.948;11.600;2023-11-19T08:17:06;10.50;99.90
18882;DHT22;9573;50.948;11.600;2023-11-19T08:19:33;10.50;99.90
18882;DHT22;9573;50.948;11.600;2023-11-19T08:22:01;10.40;99.90
18882;DHT22;9573;50.948;11.600;2023-11-19T08:24:29;12.10;99.90
18882;DHT22;9573;50.948;11.600;2023-11-19T08:26:56;14.00;99.90
18882;DHT22;9573;50.948;11.600;2023-11-19T08:29:23;13.40;99.90
18882;DHT22;9573;50.948;11.600;2023-11-19T08:31:51;14.70;99.90
18882;DHT22;9573;50.948;11.600;2023-11-19T08:34:18;15.20;99.90
18882;DHT22;9573;50.948;11.600;2023-11-19T08:36:50;16.40;99.90
18882;DHT22;9573;50.948;11.600;2023-11-19T08:39:19;15.20;99.90
18882;DHT22;9573;50.948;11.600;2023-11-19T08:41:49;14.20;99.90
18882;DHT22;9573;50.948;11.600;2023-11-19T08:44:17;13.60;99.90
18882;DHT22;9573;50.948;11.600;2023-11-19T08:46:48;13.20;99.90
18882;DHT22;9573;50.948;11.600;2023-11-19T08:49:15;12.90;99.90
18882;DHT22;9573;50.948;11.600;2023-11-19T08:51:42;12.70;99.90
18882;DHT22;9573;50.948;11.600;2023-11-19T08:54:10;12.50;99.90
18882;DHT22;9573;50.948;11.600;2023-11-19T08:56:39;12.30;99.90
18882;DHT22;9573;50.948;11.600;2023-11-19T08:59:08;12.20;99.90
18882;DHT22;9573;50.948;11.600;2023-11-19T09:01:38;12.20;99.90
18882;DHT22;9573;50.948;11.600;2023-11-19T09:04:05;12.20;99.90
18882;DHT22;9573;50.948;11.600;2023-11-19T09:06:33;12.30;99.90
18882;DHT22;9573;50.948;11.600;2023-11-19T09:09:01;13.10;99.90
18882;DHT22;9573;50.948;11.600;2023-11-19T09:11:31;14.90;99.90
18882;DHT22;9573;50.948;11.600;2023-11-19T09:13:58;16.30;99.90
18882;DHT22;9573;50.948;11.600;2023-11-19T09:16:26;17.50;99.90
18882;DHT22;9573;50.948;11.600;2023-11-19T09:18:53;17.60;99.90
18882;DHT22;9573;50.948;11.600;2023-11-19T09:21:20;17.30;99.90
18882;DHT22;9573;50.948;11.600;2023-11-19T09:23:47;17.30;99.90
18882;DHT22;9573;50.948;11.600;2023-11-19T09:26:15;17.50;99.90
18882;DHT22;9573;50.948;11.600;2023-11-19T09:28:42;18.00;99.90
18882;DHT22;9573;50.948;11.600;2023-11-19T09:31:16;18.70;99.90
18882;DHT22;9573;50.948;11.600;2023-11-19T09:33:45;20.40;99.90
18882;DHT22;9573;50.948;11.600;2023-11-19T09:36:12;21.50;99.90
18882;DHT22;9573;50.948;11.600;2023-11-19T09:38:40;21.70;99.90
18882;DHT22;9573;50.948;11.600;2023-11-19T09:41:07;21.50;99.90
18882;DHT22;9573;50.948;11.600;2023-11-19T09:43:38;21.80;99.90
18882;DHT22;9573;50.948;11.600;2023-11-19T09:46:06;22.00;99.90
18882;DHT22;9573;50.948;11.600;2023-11-19T09:48:38;21.90;99.90
18882;DHT22;9573;50.948;11.600;2023-11-19T09:51:09;22.30;99.90
18882;DHT22;9573;50.948;11.600;2023-11-19T09:53:38;22.60;99.90
18882;DHT22;9573;50.948;11.600;2023-11-19T09:56:06;23.80;99.90
18882;DHT22;9573;50.948;11.600;2023-11-19T09:58:36;24.90;99.90
18882;DHT22;9573;50.948;11.600;2023-11-19T10:01:05;25.60;99.90
18882;DHT22;9573;50.948;11.600;2023-11-19T10:03:35;25.90;99.90
18882;DHT22;9573;50.948;11.600;2023-11-19T10:06:06;26.40;99.80
18882;DHT22;9573;50.948;11.600;2023-11-19T10:08:37;25.90;96.00
18882;DHT22;9573;50.948;11.600;2023-11-19T10:11:06;26.20;94.70
18882;DHT22;9573;50.948;11.600;2023-11-19T10:13:35;26.60;93.20
18882;DHT22;9573;50.948;11.600;2023-11-19T10:16:07;26.50;88.90
18882;DHT22;9573;50.948;11.600;2023-11-19T10:18:35;26.40;82.80
18882;DHT22;9573;50.948;11.600;2023-11-19T10:21:04;26.10;83.80
18882;DHT22;9573;50.948;11.600;2023-11-19T10:26:26;25.90;84.70
18882;DHT22;9573;50.948;11.600;2023-11-19T10:28:55;26.00;85.20
18882;DHT22;9573;50.948;11.600;2023-11-19T10:31:23;26.30;81.90
18882;DHT22;9573;50.948;11.600;2023-11-19T10:33:52;26.60;82.00
18882;DHT22;9573;50.948;11.600;2023-11-19T10:36:19;26.70;81.90
18882;DHT22;9573;50.948;11.600;2023-11-19T10:38:52;26.90;80.20
18882;DHT22;9573;50.948;11.600;2023-11-19T10:41:28;26.50;77.60
18882;DHT22;9573;50.948;11.600;2023-11-19T10:43:56;25.30;79.60
18882;DHT22;9573;50.948;11.600;2023-11-19T10:46:23;24.80;81.30
18882;DHT22;9573;50.948;11.600;2023-11-19T10:49:03;25.30;81.30
18882;DHT22;9573;50.948;11.600;2023-11-19T10:51:32;24.90;82.00
18882;DHT22;9573;50.948;11.600;2023-11-19T10:54:02;23.30;86.10
18882;DHT22;9573;50.948;11.600;2023-11-19T10:56:33;21.00;91.10
18882;DHT22;9573;50.948;11.600;2023-11-19T10:59:01;19.30;93.70
18882;DHT22;9573;50.948;11.600;2023-11-19T11:01:42;18.20;95.80
18882;DHT22;9573;50.948;11.600;2023-11-19T11:04:14;17.30;98.20
18882;DHT22;9573;50.948;11.600;2023-11-19T11:06:42;17.10;99.50
18882;DHT22;9573;50.948;11.600;2023-11-19T11:09:11;18.60;98.10
18882;DHT22;9573;50.948;11.600;2023-11-19T11:11:40;20.20;96.10
18882;DHT22;9573;50.948;11.600;2023-11-19T11:14:11;21.30;94.70
18882;DHT22;9573;50.948;11.600;2023-11-19T11:16:45;22.20;93.60
18882;DHT22;9573;50.948;11.600;2023-11-19T11:19:13;23.00;92.60
18882;DHT22;9573;50.948;11.600;2023-11-19T11:21:44;23.40;91.90
18882;DHT22;9573;50.948;11.600;2023-11-19T11:24:37;23.70;91.40
18882;DHT22;9573;50.948;11.600;2023-11-19T11:27:36;24.30;90.80
18882;DHT22;9573;50.948;11.600;2023-11-19T11:30:29;24.30;87.30
18882;DHT22;9573;50.948;11.600;2023-11-19T11:33:11;23.90;88.60
18882;DHT22;9573;50.948;11.600;2023-11-19T11:35:55;23.70;88.60
18882;DHT22;9573;50.948;11.600;2023-11-19T11:38:28;23.40;87.00
18882;DHT22;9573;50.948;11.600;2023-11-19T11:41:18;22.50;89.10
18882;DHT22;9573;50.948;11.600;2023-11-19T11:43:48;22.40;88.80
18882;DHT22;9573;50.948;11.600;2023-11-19T11:46:53;22.50;86.70
18882;DHT22;9573;50.948;11.600;2023-11-19T11:49:28;22.50;87.40
18882;DHT22;9573;50.948;11.600;2023-11-19T11:52:00;22.80;87.20
18882;DHT22;9573;50.948;11.600;2023-11-19T11:54:32;23.00;86.50
18882;DHT22;9573;50.948;11.600;2023-11-19T11:57:03;23.00;86.40
18882;DHT22;9573;50.948;11.600;2023-11-19T11:59:47;22.40;86.20
18882;DHT22;9573;50.948;11.600;2023-11-19T12:02:16;22.40;86.20
18882;DHT22;9573;50.948;11.600;2023-11-19T12:04:48;21.70;87.60
18882;DHT22;9573;50.948;11.600;2023-11-19T12:07:20;20.80;90.00
18882;DHT22;9573;50.948;11.600;2023-11-19T12:09:51;20.00;91.00
18882;DHT22;9573;50.948;11.600;2023-11-19T12:12:21;19.30;91.90
18882;DHT22;9573;50.948;11.600;2023-11-19T12:15:04;19.10;92.50
18882;DHT22;9573;50.948;11.600;2023-11-19T12:17:38;19.20;92.60
18882;DHT22;9573;50.948;11.600;2023-11-19T12:20:10;19.10;92.80
18882;DHT22;9573;50.948;11.600;2023-11-19T12:22:38;19.30;92.50
18882;DHT22;9573;50.948;11.600;2023-11-19T12:25:07;19.30;92.70
18882;DHT22;9573;50.948;11.600;2023-11-19T12:27:35;19.50;92.50
18882;DHT22;9573;50.948;11.600;2023-11-19T12:30:08;19.90;92.30
18882;DHT22;9573;50.948;11.600;2023-11-19T12:32:39;20.40;92.00
18882;DHT22;9573;50.948;11.600;2023-11-19T12:35:07;20.70;90.90
18882;DHT22;9573;50.948;11.600;2023-11-19T12:37:44;20.50;91.00
18882;DHT22;9573;50.948;11.600;2023-11-19T12:40:16;20.30;91.60
18882;DHT22;9573;50.948;11.600;2023-11-19T12:42:44;20.50;91.90
18882;DHT22;9573;50.948;11.600;2023-11-19T12:45:13;20.70;92.00
18882;DHT22;9573;50.948;11.600;2023-11-19T12:47:42;20.90;91.50
18882;DHT22;9573;50.948;11.600;2023-11-19T12:50:10;20.90;91.10
18882;DHT22;9573;50.948;11.600;2023-11-19T12:52:37;20.90;91.00
18882;DHT22;9573;50.948;11.600;2023-11-19T12:57:51;20.50;91.40
18882;DHT22;9573;50.948;11.600;2023-11-19T13:00:22;20.20;91.50
18882;DHT22;9573;50.948;11.600;2023-11-19T13:02:53;20.10;91.40
18882;DHT22;9573;50.948;11.600;2023-11-19T13:05:23;19.80;92.00
18882;DHT22;9573;50.948;11.600;2023-11-19T13:07:59;19.80;92.30
18882;DHT22;9573;50.948;11.600;2023-11-19T13:10:29;19.60;92.10
18882;DHT22;9573;50.948;11.600;2023-11-19T13:13:03;19.40;92.30
18882;DHT22;9573;50.948;11.600;2023-11-19T13:15:33;19.10;92.40
18882;DHT22;9573;50.948;11.600;2023-11-19T13:18:01;18.70;92.80
18882;DHT22;9573;50.948;11.600;2023-11-19T13:20:29;18.10;93.90
18882;DHT22;9573;50.948;11.600;2023-11-19T13:22:58;17.50;94.90
18882;DHT22;9573;50.948;11.600;2023-11-19T13:25:25;17.60;95.50
18882;DHT22;9573;50.948;11.600;2023-11-19T13:27:53;17.80;95.40
18882;DHT22;9573;50.948;11.600;2023-11-19T13:30:20;17.60;95.50
18882;DHT22;9573;50.948;11.600;2023-11-19T13:32:49;17.00;96.20
18882;DHT22;9573;50.948;11.600;2023-11-19T13:35:16;16.40;97.00
18882;DHT22;9573;50.948;11.600;2023-11-19T13:37:44;15.90;98.10
18882;DHT22;9573;50.948;11.600;2023-11-19T13:40:12;15.50;98.60
18882;DHT22;9573;50.948;11.600;2023-11-19T13:42:40;15.40;99.20
18882;DHT22;9573;50.948;11.600;2023-11-19T13:45:09;15.50;99.40
18882;DHT22;9573;50.948;11.600;2023-11-19T13:47:38;15.90;99.10
18882;DHT22;9573;50.948;11.600;2023-11-19T13:50:09;16.30;98.60
18882;DHT22;9573;50.948;11.600;2023-11-19T13:52:37;16.70;98.20
18882;DHT22;9573;50.948;11.600;2023-11-19T13:55:06;16.80;97.60
18882;DHT22;9573;50.948;11.600;2023-11-19T13:57:34;16.50;97.80
18882;DHT22;9573;50.948;11.600;2023-11-19T14:00:01;16.00;98.40
18882;DHT22;9573;50.948;11.600;2023-11-19T14:02:31;15.60;99.00
18882;DHT22;9573;50.948;11.600;2023-11-19T14:04:58;15.40;99.40
18882;DHT22;9573;50.948;11.600;2023-11-19T14:07:27;15.20;99.60
18882;DHT22;9573;50.948;11.600;2023-11-19T14:09:54;15.10;99.80
18882;DHT22;9573;50.948;11.600;2023-11-19T14:12:21;14.90;99.90
18882;DHT22;9573;50.948;11.600;2023-11-19T14:14:49;14.80;99.90
18882;DHT22;9573;50.948;11.600;2023-11-19T14:17:16;14.70;99.90
18882;DHT22;9573;50.948;11.600;2023-11-19T14:19:44;14.60;99.90
18882;DHT22;9573;50.948;11.600;2023-11-19T14:22:11;14.40;99.90
18882;DHT22;9573;50.948;11.600;2023-11-19T14:24:39;14.30;99.90
18882;DHT22;9573;50.948;11.600;2023-11-19T14:27:08;14.20;99.90
18882;DHT22;9573;50.948;11.600;2023-11-19T14:29:35;14.20;99.90
18882;DHT22;9573;50.948;11.600;2023-11-19T14:32:03;14.20;99.90
18882;DHT22;9573;50.948;11.600;2023-11-19T14:34:31;14.20;99.90
18882;DHT22;9573;50.948;11.600;2023-11-19T14:36:58;14.10;99.90
18882;DHT22;9573;50.948;11.600;2023-11-19T14:39:26;14.00;99.90
18882;DHT22;9573;50.948;11.600;2023-11-19T14:41:55;13.90;99.90
18882;DHT22;9573;50.948;11.600;2023-11-19T14:44:26;13.90;99.90
18882;DHT22;9573;50.948;11.600;2023-11-19T14:46:54;13.80;99.90
18882;DHT22;9573;50.948;11.600;2023-11-19T14:49:21;13.80;99.90
18882;DHT22;9573;50.948;11.600;2023-11-19T14:51:49;13.70;99.90
18882;DHT22;9573;50.948;11.600;2023-11-19T14:54:16;13.40;99.90
18882;DHT22;9573;50.948;11.600;2023-11-19T14:56:43;13.20;99.90
18882;DHT22;9573;50.948;11.600;2023-11-19T14:59:12;12.90;99.90
18882;DHT22;9573;50.948;11.600;2023-11-19T15:01:39;12.60;99.90
18882;DHT22;9573;50.948;11.600;2023-11-19T15:04:06;12.40;99.90
18882;DHT22;9573;50.948;11.600;2023-11-19T15:06:33;12.30;99.90
18882;DHT22;9573;50.948;11.600;2023-11-19T15:09:01;12.20;99.90
18882;DHT22;9573;50.948;11.600;2023-11-19T15:11:28;12.10;99.90
18882;DHT22;9573;50.948;11.600;2023-11-19T15:13:55;12.00;99.90
18882;DHT22;9573;50.948;11.600;2023-11-19T15:16:24;12.00;99.90
18882;DHT22;9573;50.948;11.600;2023-11-19T15:18:56;12.10;99.90
18882;DHT22;9573;50.948;11.600;2023-11-19T15:21:25;12.20;99.90
18882;DHT22;9573;50.948;11.600;2023-11-19T15:23:54;12.30;99.90
18882;DHT22;9573;50.948;11.600;2023-11-19T15:26:21;12.30;99.90
18882;DHT22;9573;50.948;11.600;2023-11-19T15:28:48;12.40;99.90
18882;DHT22;9573;50.948;11.600;2023-11-19T15:31:16;12.40;99.90
18882;DHT22;9573;50.948;11.600;2023-11-19T15:33:44;12.40;99.90
18882;DHT22;9573;50.948;11.600;2023-11-19T15:36:12;12.40;99.90
18882;DHT22;9573;50.948;11.600;2023-11-19T15:38:39;12.40;99.90
18882;DHT22;9573;50.948;11.600;2023-11-19T15:41:06;12.40;99.90
18882;DHT22;9573;50.948;11.600;2023-11-19T15:43:34;12.20;99.90
18882;DHT22;9573;50.948;11.600;2023-11-19T15:46:01;12.10;99.90
18882;DHT22;9573;50.948;11.600;2023-11-19T15:48:32;12.00;99.90
18882;DHT22;9573;50.948;11.600;2023-11-19T15:51:00;11.90;99.90
18882;DHT22;9573;50.948;11.600;2023-11-19T15:53:28;11.90;99.90